Latest Weather Observations for Morawa Airport

IDW60801

Issued at 6:02 am WST Tuesday 23 December 2014 (issued every 30 minutes, with the page automatically refreshed every 10 minutes)

About weather observations | Map of weather stations | Latest weather observations for WA | Other Formats
Station Details ID: 008296 Name: MORAWA AIRPORT Lat: -29.20 Lon: 116.02 Height: 271.4 m
Data from the previous 72 hours. | See also: Recent months at Morawa Airport
Date/Time
WST
Temp
°C
App
Temp
°C
Dew
Point
Rel
Hum
%
Delta-T
°C
Wind Press
QNH
hPa
Press
MSL
hPa
Rain
since 9 am
mm
Dir
 
Spd
km/h
Gust
km/h
Spd
kts
Gust
kts
23/06:00am 22.7 20.2 8.4 40 7.7 SSE 11 13 6 7 1014.3 1012.7 0.0
23/05:30am 21.4 18.9 8.3 43 7.0 SSE 11 13 6 7 1014.1 1012.5 0.0
23/05:00am 21.4 18.5 8.0 42 7.1 SE 13 17 7 9 1013.6 1012.0 0.0
23/04:30am 21.2 18.7 8.1 43 6.9 ESE 11 17 6 9 1013.3 1011.8 0.0
23/04:00am 20.3 17.8 8.3 46 6.3 SE 11 19 6 10 1013.2 1011.7 0.0
23/03:30am 20.5 18.5 8.8 47 6.2 S 9 13 5 7 1013.2 1011.7 0.0
23/03:00am 20.9 18.3 9.2 47 6.3 S 13 17 7 9 1013.1 1011.6 0.0
23/02:30am 21.1 18.9 9.4 47 6.3 SSW 11 13 6 7 1013.1 1011.6 0.0
23/02:00am 21.3 19.2 9.9 48 6.2 S 11 15 6 8 1013.1 1011.6 0.0
23/01:30am 21.4 19.3 9.9 48 6.3 S 11 19 6 10 1013.2 1011.7 0.0
23/01:00am 21.7 18.5 9.9 47 6.5 S 17 20 9 11 1013.3 1011.8 0.0
23/12:30am 22.1 18.5 9.9 46 6.7 S 19 24 10 13 1013.3 1011.8 0.0
23/12:00am 22.4 18.7 9.6 44 7.0 S 19 24 10 13 1013.5 1011.9 0.0
 
Date/Time
WST
Temp
°C
App
Temp
°C
Dew
Point
Rel
Hum
%
Delta-T
°C
Wind Press
QNH
hPa
Press
MSL
hPa
Rain
since 9 am
mm
Dir
 
Spd
km/h
Gust
km/h
Spd
kts
Gust
kts
22/11:30pm 23.0 19.8 9.8 43 7.3 S 17 24 9 13 1013.6 1012.0 0.0
22/11:00pm 23.4 19.8 9.8 42 7.5 S 19 28 10 15 1013.7 1012.1 0.0
22/10:30pm 24.0 20.3 10.3 42 7.6 S 20 28 11 15 1013.5 1011.9 0.0
22/10:00pm 24.6 20.6 10.5 41 7.9 S 22 32 12 17 1013.2 1011.7 0.0
22/09:30pm 25.7 21.0 10.7 39 8.5 S 26 39 14 21 1012.8 1011.3 0.0
22/09:00pm 27.3 22.1 10.1 34 9.7 S 28 39 15 21 1012.4 1010.8 0.0
22/08:30pm 29.2 24.9 5.3 22 12.6 SSE 17 20 9 11 1012.0 1010.4 0.0
22/08:00pm 29.7 25.6 4.4 20 13.2 SSE 15 19 8 10 1011.8 1010.2 0.0
22/07:30pm 30.6 26.5 4.4 19 13.7 SSE 15 19 8 10 1011.5 1009.9 0.0
22/07:00pm 31.6 26.9 5.2 19 14.1 SSE 19 26 10 14 1011.3 1009.7 0.0
22/06:30pm 32.7 29.0 4.5 17 15.0 SSE 13 20 7 11 1011.1 1009.5 0.0
22/06:00pm 33.4 29.3 4.2 16 15.5 SSE 15 24 8 13 1010.8 1009.2 0.0
22/05:30pm 33.8 29.9 5.4 17 15.4 S 15 26 8 14 1010.7 1009.1 0.0
22/05:00pm 33.8 30.3 5.4 17 15.4 SSE 13 24 7 13 1010.7 1009.1 0.0
22/04:30pm 33.5 30.2 2.4 14 16.0 SE 9 22 5 12 1011.0 1009.4 0.0
22/04:00pm 34.0 31.3 3.7 15 16.0 ESE 7 19 4 10 1011.2 1009.6 0.0
22/03:30pm 33.8 31.3 3.6 15 15.9 SSW 6 17 3 9 1011.4 1009.8 0.0
22/03:00pm 33.8 29.7 4.5 16 15.6 SE 15 32 8 17 1011.6 1010.0 0.0
22/02:30pm 33.4 30.2 5.0 17 15.2 SSE 11 24 6 13 1011.9 1010.3 0.0
22/02:00pm 32.8 29.5 6.2 19 14.5 SE 13 28 7 15 1012.3 1010.7 0.0
22/01:30pm 33.0 29.3 6.3 19 14.6 ESE 15 28 8 15 1012.6 1011.0 0.0
22/01:00pm 32.0 28.5 7.0 21 13.8 E 15 30 8 16 1013.0 1011.5 0.0
22/12:30pm 30.8 28.5 7.3 23 12.9 ESE 9 19 5 10 1013.3 1011.8 0.0
22/12:00pm 30.9 28.5 8.6 25 12.5 E 11 22 6 12 1013.8 1012.2 0.0
22/11:30am 30.4 28.2 9.3 27 12.0 ESE 11 20 6 11 1014.2 1012.6 0.0
22/11:00am 29.1 26.5 9.3 29 11.1 E 13 20 7 11 1014.6 1013.0 0.0
22/10:30am 28.6 25.9 10.3 32 10.4 E 15 32 8 17 1014.8 1013.2 0.0
22/10:00am 28.4 26.0 10.1 32 10.4 E 13 22 7 12 1015.0 1013.4 0.0
22/09:30am 27.2 24.5 10.4 35 9.5 E 15 22 8 12 1015.2 1013.6 0.0
22/09:00am 26.6 24.1 11.1 38 8.9 E 15 24 8 13 1015.4 1013.8 0.0
22/08:30am 25.8 22.5 11.6 41 8.2 E 20 30 11 16 1015.6 1014.0 0.0
22/08:00am 25.2 21.9 11.7 43 7.8 E 20 28 11 15 1015.7 1014.1 0.0
22/07:30am 23.9 20.7 11.9 47 6.9 E 20 30 11 16 1015.8 1014.2 0.0
22/07:00am 22.7 19.1 11.7 49 6.2 E 22 30 12 16 1015.7 1014.1 0.0
22/06:30am 21.5 19.0 12.4 56 5.2 ESE 17 22 9 12 1015.6 1014.0 0.0
22/06:00am 20.2 19.0 12.7 62 4.3 ESE 11 17 6 9 1015.3 1013.7 0.0
22/05:30am 19.2 17.5 12.5 65 3.8 ESE 13 19 7 10 1014.9 1013.3 0.0
22/05:00am 19.2 17.2 12.7 66 3.7 SE 15 20 8 11 1014.3 1012.7 0.0
22/04:30am 19.3 16.9 12.8 66 3.7 SE 17 20 9 11 1014.1 1012.5 0.0
22/04:00am 19.7 16.7 12.7 64 4.0 SE 20 26 11 14 1013.9 1012.3 0.0
22/03:30am 20.1 17.1 12.6 62 4.3 SE 20 28 11 15 1013.9 1012.3 0.0
22/03:00am 20.5 17.1 12.5 60 4.6 SE 22 32 12 17 1013.7 1012.1 0.0
22/02:30am 20.9 17.1 12.3 58 4.9 SE 24 30 13 16 1013.6 1012.0 0.0
22/02:00am 21.3 17.5 12.4 57 5.1 SE 24 35 13 19 1013.6 1012.0 0.0
22/01:30am 21.7 17.8 12.0 54 5.5 SE 24 32 13 17 1013.6 1012.0 0.0
22/01:00am 22.2 18.1 11.6 51 6.0 SE 24 35 13 19 1013.9 1012.3 0.0
22/12:30am 22.7 18.5 11.1 48 6.5 SSE 24 35 13 19 1014.2 1012.6 0.0
22/12:00am 23.2 18.9 10.6 45 7.0 SSE 24 37 13 20 1014.2 1012.6 0.0
 
Date/Time
WST
Temp
°C
App
Temp
°C
Dew
Point
Rel
Hum
%
Delta-T
°C
Wind Press
QNH
hPa
Press
MSL
hPa
Rain
since 9 am
mm
Dir
 
Spd
km/h
Gust
km/h
Spd
kts
Gust
kts
21/11:30pm 23.5 19.3 9.9 42 7.5 SSE 22 30 12 16 1014.2 1012.6 0.0
21/11:00pm 23.9 19.5 9.1 39 8.1 SSE 22 30 12 16 1014.3 1012.7 0.0
21/10:30pm 24.3 20.2 8.7 37 8.5 SSE 20 28 11 15 1014.3 1012.7 0.0
21/10:00pm 24.8 20.2 8.3 35 8.9 SSE 22 28 12 15 1014.3 1012.7 0.0
21/09:30pm 25.4 21.4 8.4 34 9.2 SSE 19 30 10 16 1014.1 1012.5 0.0
21/09:00pm 25.8 22.1 7.9 32 9.7 SSE 17 22 9 12 1013.8 1012.2 0.0
21/08:30pm 26.5 22.4 8.0 31 10.1 SE 19 24 10 13 1013.6 1012.0 0.0
21/08:00pm 27.0 22.6 7.5 29 10.5 SE 20 26 11 14 1013.2 1011.7 0.0
21/07:30pm 27.8 21.9 7.6 28 11.0 SE 28 35 15 19 1012.8 1011.3 0.0
21/07:00pm 28.7 22.8 7.3 26 11.6 SE 28 37 15 20 1012.4 1010.8 0.0
21/06:30pm 29.8 23.8 7.1 24 12.4 SE 28 41 15 22 1012.0 1010.4 0.0
21/06:00pm 30.6 25.0 7.1 23 12.9 SE 26 39 14 21 1011.8 1010.2 0.0
21/05:30pm 31.0 24.2 6.8 22 13.2 SSE 32 44 17 24 1011.6 1010.0 0.0
21/05:00pm 31.5 25.0 6.5 21 13.6 SSE 30 43 16 23 1011.6 1010.0 0.0
21/04:43pm 31.8 25.9 7.5 22 13.5 SSE 28 46 15 25 1011.5 1009.9 0.0
21/04:30pm 32.0 26.5 7.6 22 13.6 SSE 26 39 14 21 1011.6 1010.0 0.0
21/04:00pm 32.4 27.4 8.0 22 13.7 SSE 24 50 13 27 1011.7 1010.1 0.0
21/03:30pm 32.2 26.4 7.8 22 13.6 SSE 28 39 15 21 1012.0 1010.4 0.0
21/03:00pm 31.6 26.2 8.0 23 13.2 SSE 26 39 14 21 1012.2 1010.6 0.0
21/02:42pm 31.5 26.0 9.1 25 12.7 SSE 28 46 15 25 1012.4 1010.8 0.0
21/02:30pm 32.1 27.7 9.0 24 13.1 SSE 22 39 12 21 1012.5 1010.9 0.0
21/02:00pm 30.7 25.5 9.0 26 12.3 SE 26 39 14 21 1012.9 1011.4 0.0
21/01:30pm 30.8 26.0 10.2 28 11.9 SSE 26 39 14 21 1013.2 1011.7 0.0
21/01:00pm 29.8 25.3 9.9 29 11.4 SE 24 41 13 22 1013.6 1012.0 0.0
21/12:30pm 29.9 25.2 10.5 30 11.2 SE 26 41 14 22 1013.9 1012.3 0.0
21/12:00pm 29.7 24.1 10.3 30 11.1 SSE 30 39 16 21 1014.2 1012.6 0.0
21/11:30am 28.1 23.2 11.2 35 9.8 SSE 28 41 15 22 1014.5 1012.9 0.0
21/11:00am 26.9 21.4 10.6 36 9.3 SSE 30 41 16 22 1014.8 1013.2 0.0
21/10:30am 26.1 21.9 11.1 39 8.6 SE 24 33 13 18 1014.9 1013.3 0.0
21/10:00am 26.6 22.3 11.9 40 8.5 SE 26 39 14 21 1015.1 1013.5 0.0
21/09:30am 24.6 20.5 11.5 44 7.5 SE 24 33 13 18 1015.2 1013.6 0.0
21/09:00am 24.4 20.0 11.7 45 7.3 SE 26 35 14 19 1015.1 1013.5 0.0
21/08:30am 23.0 18.1 11.4 48 6.6 SE 28 35 15 19 1015.1 1013.5 0.0
21/08:00am 22.4 17.6 11.5 50 6.2 SE 28 37 15 20 1014.9 1013.3 0.0
21/07:30am 21.3 16.0 11.3 53 5.6 SSE 30 41 16 22 1014.6 1013.0 0.0
21/07:00am 20.5 14.9 11.4 56 5.1 SSE 32 39 17 21 1014.4 1012.8 0.0
21/06:30am 20.1 16.4 11.6 58 4.8 SSE 22 33 12 18 1014.2 1012.6 0.0
21/06:00am 18.9 16.2 11.7 63 4.0 SSE 17 24 9 13 1013.9 1012.3 0.0
21/05:30am 17.9 15.3 12.1 69 3.2 S 17 22 9 12 1013.6 1012.0 0.0
21/05:00am 17.8 16.1 12.3 70 3.1 S 13 20 7 11 1013.2 1011.7 0.0
21/04:30am 17.8 16.2 12.7 72 2.9 S 13 19 7 10 1012.8 1011.3 0.0
21/04:00am 18.0 17.3 13.1 73 2.8 S 9 13 5 7 1012.6 1011.0 0.0
21/03:30am 18.2 16.7 13.1 72 2.9 SSE 13 17 7 9 1012.5 1010.9 0.0
21/03:00am 18.6 16.8 13.2 71 3.1 SSE 15 20 8 11 1012.4 1010.8 0.0
21/02:30am 18.9 16.1 13.3 70 3.2 SSE 20 28 11 15 1012.2 1010.6 0.0
21/02:00am 18.2 16.5 13.5 74 2.7 S 15 22 8 12 1012.1 1010.5 0.0
21/01:30am 17.8 16.2 13.9 78 2.3 SSW 15 20 8 11 1012.4 1010.8 0.0
21/01:00am 17.7 16.9 14.0 79 2.1 SSW 11 17 6 9 1012.5 1010.9 0.0
21/12:30am 17.8 16.7 14.3 80 2.0 SSW 13 17 7 9 1012.7 1011.1 0.0
21/12:00am 17.9 16.4 14.2 79 2.1 SSW 15 20 8 11 1012.8 1011.3 0.0
 
Date/Time
WST
Temp
°C
App
Temp
°C
Dew
Point
Rel
Hum
%
Delta-T
°C
Wind Press
QNH
hPa
Press
MSL
hPa
Rain
since 9 am
mm
Dir
 
Spd
km/h
Gust
km/h
Spd
kts
Gust
kts
20/11:30pm 18.1 15.8 14.2 78 2.3 SSW 19 26 10 14 1012.7 1011.1 0.0
20/11:00pm 18.4 16.0 14.3 77 2.4 SSW 20 28 11 15 1012.7 1011.1 0.0
20/10:30pm 18.7 16.2 14.0 74 2.7 SSW 20 30 11 16 1012.8 1011.3 0.0
20/10:00pm 19.0 16.4 13.8 72 3.0 SSW 20 28 11 15 1012.7 1011.1 0.0
20/09:30pm 19.5 16.5 13.7 69 3.4 SSW 22 32 12 17 1012.6 1011.0 0.0
20/09:00pm 20.2 17.5 13.4 65 3.9 SW 20 28 11 15 1012.0 1010.4 0.0
20/08:30pm 21.1 18.3 13.3 61 4.5 SW 20 30 11 16 1011.9 1010.3 0.0
20/08:00pm 22.2 19.1 13.3 57 5.2 SW 22 32 12 17 1011.6 1010.0 0.0
20/07:30pm 23.4 19.6 12.4 50 6.3 SW 24 33 13 18 1011.2 1009.6 0.0
20/07:00pm 24.6 21.0 11.9 45 7.3 SW 22 33 12 18 1011.0 1009.4 0.0
20/06:30pm 26.3 21.0 10.0 36 9.2 SW 28 35 15 19 1010.7 1009.1 0.0
20/06:00pm 27.8 21.7 8.1 29 10.8 SSW 30 43 16 23 1010.4 1008.8 0.0
20/05:30pm 29.1 23.4 8.2 27 11.6 SSW 28 37 15 20 1010.1 1008.5 0.0
20/05:00pm 29.7 23.8 7.6 25 12.2 SW 28 43 15 23 1010.0 1008.4 0.0
20/04:30pm 30.4 23.8 7.6 24 12.6 SW 32 43 17 23 1009.8 1008.2 0.0
20/04:00pm 30.6 24.4 7.7 24 12.7 SW 30 50 16 27 1009.7 1008.1 0.0
20/03:52pm 30.8 25.1 8.5 25 12.5 SW 28 50 15 27 1009.7 1008.1 0.0
20/03:30pm 31.0 25.3 9.8 27 12.1 SW 30 43 16 23 1009.7 1008.1 0.0
20/03:15pm 31.0 26.0 10.9 29 11.7 SW 28 46 15 25 1009.7 1008.1 0.0
20/03:00pm 30.5 25.1 11.0 30 11.4 SW 30 44 16 24 1009.8 1008.2 0.0
20/02:38pm 30.1 25.3 11.6 32 10.9 WSW 28 50 15 27 1010.1 1008.5 0.0
20/02:30pm 30.3 25.7 12.2 33 10.7 SW 28 44 15 24 1010.1 1008.5 0.0
20/02:16pm 30.4 25.4 12.3 33 10.8 SW 30 52 16 28 1009.9 1008.3 0.0
20/02:00pm 30.6 26.1 12.5 33 10.8 SW 28 46 15 25 1010.2 1008.6 0.0
20/01:30pm 29.4 24.8 12.3 34 10.1 WSW 28 44 15 24 1010.3 1008.7 0.0
20/01:00pm 29.6 24.9 12.1 34 10.3 WSW 28 50 15 27 1010.5 1008.9 0.0
20/12:59pm 29.5 24.8 12.0 34 10.3 WSW 28 50 15 27 1010.5 1008.9 0.0
20/12:30pm 29.1 25.2 13.3 37 9.5 WSW 26 37 14 20 1010.6 1009.0 0.0
20/12:00pm 27.4 23.6 13.7 43 8.2 WSW 26 39 14 21 1010.9 1009.3 0.0
20/11:30am 26.5 22.6 14.3 47 7.4 WSW 28 41 15 22 1011.2 1009.6 0.0
20/11:00am 25.9 23.3 15.0 51 6.6 WSW 22 35 12 19 1011.5 1009.9 0.0
20/10:30am 24.5 22.4 15.1 55 5.7 WSW 20 35 11 19 1011.7 1010.1 0.0
20/10:00am 23.6 21.2 15.4 60 5.0 WSW 22 35 12 19 1011.6 1010.0 0.0
20/09:30am 22.2 19.8 15.3 65 4.2 WSW 22 32 12 17 1011.7 1010.1 0.0
20/09:00am 21.9 20.2 15.7 68 3.8 WSW 19 30 10 16 1011.8 1010.2 0.0
20/08:30am 20.8 19.3 16.2 75 2.8 WSW 19 30 10 16 1011.7 1010.1 0.0
20/08:00am 20.6 19.6 16.6 78 2.5 WSW 17 26 9 14 1011.6 1010.0 0.0
20/07:30am 19.8 19.3 16.8 83 1.8 WSW 15 22 8 12 1011.5 1009.9 0.0
20/07:00am 19.3 18.3 16.7 85 1.6 WSW 17 24 9 13 1011.1 1009.5 0.0
20/06:30am 18.9 17.6 16.7 87 1.3 WSW 19 26 10 14 1010.9 1009.3 0.0

Other Formats:

Comma delimited format used in spreadsheet applications
http://www.bom.gov.au/fwo/IDW60801/IDW60801.94417.axf

JavaScript Object Notation format (JSON) in row-major order
http://www.bom.gov.au/fwo/IDW60801/IDW60801.94417.json